Time;durP1;ratioP1;P1;durP2;ratioP2;P2;SDS_P1;SDS_P2;PMS_P1;PMS_P2;Temp;Humidity;BMP_temperature;BMP_pressure;BME280_temperature;BME280_humidity;BME280_pressure;Samples;Min_cycle;Max_cycle;Signal;HPM_P1;HPM_P2
2022/09/08 00:02:16;;;;;;;3.00;1.40;;;16.90;63.20;;;;;;4952566;28;46674;-66
2022/09/08 00:04:43;;;;;;;3.10;1.60;;;17.00;61.80;;;;;;4952839;28;47082;-66
2022/09/08 00:07:08;;;;;;;4.03;1.30;;;17.00;62.80;;;;;;4950747;28;47043;-66
2022/09/08 00:09:34;;;;;;;3.40;1.97;;;17.00;62.60;;;;;;4952318;28;46354;-66
2022/09/08 00:12:02;;;;;;;3.53;2.07;;;17.10;62.20;;;;;;4966622;28;46451;-66
2022/09/08 00:14:30;;;;;;;3.70;1.50;;;17.20;61.70;;;;;;4948032;28;47159;-66
2022/09/08 00:16:56;;;;;;;4.50;1.60;;;17.30;61.50;;;;;;4947934;28;46356;-66
2022/09/08 00:19:22;;;;;;;4.67;1.60;;;17.30;61.20;;;;;;4950343;28;46294;-66
2022/09/08 00:21:47;;;;;;;4.40;1.30;;;17.30;61.30;;;;;;4953240;28;46226;-66
2022/09/08 00:24:13;;;;;;;7.00;2.50;;;17.30;61.50;;;;;;4953948;28;48638;-66
2022/09/08 00:26:38;;;;;;;7.93;2.40;;;17.40;62.60;;;;;;4952575;28;46392;-66
2022/09/08 00:29:04;;;;;;;6.03;2.00;;;17.40;61.20;;;;;;4952269;28;46344;-66
2022/09/08 00:31:30;;;;;;;4.80;1.90;;;17.50;61.10;;;;;;4954838;28;46575;-66
2022/09/08 00:33:55;;;;;;;4.37;1.60;;;17.50;60.10;;;;;;4953204;28;46981;-66
2022/09/08 00:36:21;;;;;;;6.50;1.87;;;17.50;61.10;;;;;;4944935;28;46360;-66
2022/09/08 00:38:52;;;;;;;4.07;1.57;;;17.50;60.90;;;;;;4953954;28;46721;-66
2022/09/08 00:41:19;;;;;;;3.73;1.50;;;17.50;60.80;;;;;;4955473;28;45869;-66
2022/09/08 00:43:47;;;;;;;5.53;1.70;;;17.60;60.80;;;;;;4957154;28;46394;-66
2022/09/08 00:46:32;;;;;;;2.53;1.20;;;17.60;61.00;;;;;;4971501;28;47052;-66
2022/09/08 00:49:18;;;;;;;4.30;1.57;;;17.50;61.10;;;;;;4954922;28;46465;-66
2022/09/08 00:51:47;;;;;;;4.40;1.60;;;17.40;61.30;;;;;;4958789;28;45890;-66
2022/09/08 00:54:16;;;;;;;3.30;1.60;;;17.40;60.40;;;;;;4954898;28;47220;-66
2022/09/08 00:56:43;;;;;;;2.87;1.30;;;17.40;61.30;;;;;;4957162;28;46348;-66
2022/09/08 00:59:09;;;;;;;3.20;1.50;;;17.50;61.40;;;;;;4955453;28;46578;-66
2022/09/08 01:01:35;;;;;;;2.87;1.33;;;17.40;61.40;;;;;;4955482;28;46317;-66
2022/09/08 01:04:03;;;;;;;6.87;1.57;;;17.30;60.70;;;;;;4952838;28;47030;-66
2022/09/08 01:15:06;;;;;;;3.73;1.50;;;16.80;62.30;;;;;;4954539;28;45929;-67
2022/09/08 01:17:31;;;;;;;3.10;1.40;;;16.80;63.50;;;;;;4955389;28;46419;-67
2022/09/08 01:19:59;;;;;;;4.57;1.33;;;16.70;64.90;;;;;;4959360;28;45818;-67
2022/09/08 01:22:56;;;;;;;4.47;1.50;;;16.80;63.40;;;;;;4957907;28;46936;-67
2022/09/08 01:25:50;;;;;;;4.37;1.60;;;16.90;61.70;;;;;;4952027;28;47750;-67
2022/09/08 01:28:34;;;;;;;2.87;1.40;;;17.00;62.30;;;;;;4953970;28;46686;-67
2022/09/08 01:31:02;;;;;;;5.03;1.30;;;17.10;61.90;;;;;;4952507;28;46417;-67
2022/09/08 01:33:28;;;;;;;5.50;1.73;;;17.20;60.50;;;;;;4952010;28;46341;-67
2022/09/08 01:35:54;;;;;;;2.53;1.40;;;17.20;61.50;;;;;;4954885;28;46385;-67
2022/09/08 01:38:19;;;;;;;2.57;1.53;;;17.30;61.50;;;;;;4952416;28;46461;-67
2022/09/08 01:40:45;;;;;;;4.37;1.60;;;17.30;61.40;;;;;;4956206;28;46420;-67
2022/09/08 01:43:11;;;;;;;6.27;1.40;;;17.30;60.40;;;;;;4955049;28;46649;-66
2022/09/08 01:45:37;;;;;;;6.67;1.80;;;17.30;61.40;;;;;;4957193;28;46435;-68
2022/09/08 01:48:03;;;;;;;3.53;1.60;;;17.20;61.70;;;;;;4951560;28;46523;-67
2022/09/08 01:50:29;;;;;;;7.97;1.53;;;17.10;62.30;;;;;;4955000;28;46339;-67
2022/09/08 01:52:55;;;;;;;4.77;1.60;;;17.00;61.80;;;;;;4953450;28;46326;-67
2022/09/08 01:55:20;;;;;;;3.90;1.73;;;17.00;62.80;;;;;;4957414;28;47086;-67
2022/09/08 01:57:46;;;;;;;4.37;1.90;;;17.00;63.10;;;;;;4952815;28;46377;-67
2022/09/08 02:00:12;;;;;;;7.90;1.90;;;16.90;63.20;;;;;;4954188;28;46243;-66
2022/09/08 02:02:38;;;;;;;3.70;1.60;;;16.80;63.50;;;;;;4956007;28;45866;-67
2022/09/08 02:05:04;;;;;;;5.97;1.57;;;16.80;63.00;;;;;;4956226;28;46409;-66
2022/09/08 02:07:31;;;;;;;4.40;1.90;;;16.80;64.10;;;;;;4953381;28;46412;-67
2022/09/08 02:09:57;;;;;;;5.70;1.90;;;16.70;64.10;;;;;;4959163;28;46506;-66
2022/09/08 02:12:23;;;;;;;5.00;1.90;;;16.70;64.00;;;;;;4958654;28;46676;-66
2022/09/08 02:14:48;;;;;;;3.70;1.70;;;16.70;63.20;;;;;;4955631;28;46475;-66
2022/09/08 02:17:14;;;;;;;5.30;1.57;;;16.80;64.10;;;;;;4955738;28;46498;-66
2022/09/08 02:19:39;;;;;;;2.90;1.70;;;16.80;63.90;;;;;;4959999;28;46433;-66
2022/09/08 02:22:05;;;;;;;5.70;1.77;;;16.80;63.60;;;;;;4957377;28;45941;-67
2022/09/08 02:24:31;;;;;;;5.90;1.93;;;16.90;62.50;;;;;;4956350;28;47316;-67
2022/09/08 02:26:57;;;;;;;3.07;1.43;;;16.90;63.50;;;;;;4956078;28;46417;-67
2022/09/08 02:29:23;;;;;;;3.60;1.50;;;16.90;63.40;;;;;;4956353;28;46390;-67
2022/09/08 02:31:48;;;;;;;4.40;1.77;;;16.90;63.60;;;;;;4957095;28;46388;-67
2022/09/08 02:34:14;;;;;;;9.60;1.70;;;16.80;62.80;;;;;;4957846;28;47029;-67
2022/09/08 02:36:40;;;;;;;2.80;1.47;;;16.80;63.60;;;;;;4957177;28;46404;-67
2022/09/08 02:39:05;;;;;;;4.73;2.07;;;16.80;63.60;;;;;;4953119;28;46777;-67
2022/09/08 02:41:31;;;;;;;5.20;1.80;;;16.90;63.80;;;;;;4955691;28;47636;-67
2022/09/08 02:43:56;;;;;;;3.57;1.83;;;17.00;62.50;;;;;;4954390;28;46268;-67
2022/09/08 02:46:24;;;;;;;3.83;1.53;;;17.00;63.40;;;;;;4953734;28;46367;-67
2022/09/08 02:48:50;;;;;;;4.53;1.50;;;17.00;63.30;;;;;;4952849;28;46414;-67
2022/09/08 02:51:19;;;;;;;4.00;1.60;;;16.90;63.30;;;;;;4953021;28;46478;-67
2022/09/08 02:53:45;;;;;;;4.57;1.60;;;16.90;62.50;;;;;;4953867;28;47080;-67
2022/09/08 02:56:10;;;;;;;3.10;1.70;;;16.90;63.50;;;;;;4952892;28;46693;-67
2022/09/08 02:58:36;;;;;;;4.97;1.57;;;16.90;63.50;;;;;;4951434;28;46259;-67
2022/09/08 03:01:04;;;;;;;3.50;1.47;;;17.00;63.60;;;;;;4954872;28;46399;-67
2022/09/08 03:03:29;;;;;;;2.37;1.27;;;16.90;62.80;;;;;;4954000;28;47816;-67
2022/09/08 03:05:55;;;;;;;3.80;1.60;;;16.90;63.80;;;;;;4952435;28;45777;-67
2022/09/08 03:08:21;;;;;;;3.70;1.80;;;16.90;63.80;;;;;;4954765;28;46760;-67
2022/09/08 03:10:50;;;;;;;6.97;1.70;;;16.90;63.90;;;;;;4949865;28;46467;-67
2022/09/08 03:13:16;;;;;;;10.97;1.73;;;16.90;62.80;;;;;;4951998;28;46689;-68
2022/09/08 03:15:43;;;;;;;5.10;1.53;;;16.90;63.90;;;;;;4955752;28;46775;-67
2022/09/08 03:18:09;;;;;;;2.30;1.40;;;16.90;65.00;;;;;;4951108;28;46478;-67
2022/09/08 03:20:36;;;;;;;4.27;1.33;;;16.90;63.80;;;;;;4954216;28;46350;-67
2022/09/08 03:23:02;;;;;;;3.30;1.40;;;16.90;62.70;;;;;;4951133;28;46420;-67
2022/09/08 03:25:29;;;;;;;3.73;1.27;;;16.90;63.70;;;;;;4955135;28;46668;-67
2022/09/08 03:27:55;;;;;;;3.50;1.57;;;16.90;63.40;;;;;;4953856;28;46356;-67
2022/09/08 03:30:22;;;;;;;3.00;1.40;;;16.90;63.40;;;;;;4953640;28;46507;-68
2022/09/08 03:32:48;;;;;;;2.83;1.50;;;17.00;63.40;;;;;;4949757;28;46608;-68
2022/09/08 03:35:17;;;;;;;3.17;1.40;;;16.90;62.30;;;;;;4952410;28;46352;-68
2022/09/08 03:37:44;;;;;;;3.07;1.77;;;16.90;63.50;;;;;;4953565;28;46569;-66
2022/09/08 03:40:13;;;;;;;5.53;1.67;;;17.00;63.50;;;;;;4952070;28;46285;-68
2022/09/08 03:42:40;;;;;;;2.40;1.43;;;16.90;63.50;;;;;;4953828;28;46437;-67
2022/09/08 03:45:09;;;;;;;3.20;1.30;;;16.90;62.70;;;;;;4954471;28;46440;-67
2022/09/08 03:47:35;;;;;;;5.13;1.57;;;16.90;63.50;;;;;;4952970;28;46596;-68
2022/09/08 03:50:02;;;;;;;3.40;1.27;;;16.90;63.80;;;;;;4952215;28;46421;-67
2022/09/08 03:52:28;;;;;;;5.93;1.70;;;16.90;64.10;;;;;;4955813;28;46397;-68
2022/09/08 03:54:54;;;;;;;2.20;1.40;;;16.80;63.10;;;;;;4953113;28;45746;-67
2022/09/08 03:57:25;;;;;;;3.70;1.40;;;16.80;64.20;;;;;;4954230;28;46369;-68
2022/09/08 03:59:53;;;;;;;10.47;1.77;;;16.80;64.20;;;;;;4951437;28;46395;-68
2022/09/08 04:02:20;;;;;;;3.40;1.40;;;16.90;64.10;;;;;;4957383;28;48112;-67
2022/09/08 04:04:54;;;;;;;3.00;1.30;;;16.90;63.10;;;;;;4950623;28;46238;-66
2022/09/08 04:07:21;;;;;;;2.43;1.33;;;16.90;64.10;;;;;;4951180;28;46340;-67
2022/09/08 04:09:47;;;;;;;3.40;1.33;;;16.90;64.10;;;;;;4954246;28;46278;-67
2022/09/08 04:12:14;;;;;;;2.83;1.47;;;16.90;64.10;;;;;;4950399;28;47260;-68
2022/09/08 04:14:40;;;;;;;3.17;1.13;;;16.90;63.30;;;;;;4954032;28;46629;-68
2022/09/08 04:17:06;;;;;;;4.97;1.60;;;16.90;64.40;;;;;;4954175;28;46460;-67
2022/09/08 04:19:32;;;;;;;5.97;1.50;;;16.80;64.40;;;;;;4952324;28;46615;-67
2022/09/08 04:21:58;;;;;;;3.43;1.50;;;16.80;64.80;;;;;;4951559;28;48035;-67
2022/09/08 04:24:23;;;;;;;3.00;1.40;;;16.80;64.10;;;;;;4960542;28;46576;-67
2022/09/08 04:26:49;;;;;;;4.80;2.00;;;16.80;65.10;;;;;;4955808;28;45850;-67
2022/09/08 04:29:16;;;;;;;4.80;1.50;;;16.80;65.00;;;;;;4953946;28;46295;-68
2022/09/08 04:31:42;;;;;;;4.57;1.50;;;16.70;66.20;;;;;;4957401;28;46604;-67
2022/09/08 04:34:07;;;;;;;3.63;1.40;;;16.70;64.10;;;;;;4955255;28;46353;-67
2022/09/08 04:36:33;;;;;;;3.70;1.70;;;16.70;65.10;;;;;;4958254;28;46335;-68
2022/09/08 04:38:59;;;;;;;6.70;1.80;;;16.70;66.40;;;;;;4955792;28;46682;-67
2022/09/08 04:41:28;;;;;;;6.00;1.70;;;16.70;65.20;;;;;;4957633;28;48100;-67
2022/09/08 04:43:54;;;;;;;5.73;1.90;;;16.70;64.30;;;;;;4958506;28;45841;-67
2022/09/08 04:46:20;;;;;;;2.93;1.50;;;16.70;65.20;;;;;;4956610;28;45751;-67
2022/09/08 04:48:47;;;;;;;3.43;1.80;;;16.70;65.40;;;;;;4957259;28;46381;-68
2022/09/08 04:51:16;;;;;;;3.23;1.60;;;16.70;65.70;;;;;;4957783;28;46368;-68
2022/09/08 04:53:43;;;;;;;3.17;1.60;;;16.60;65.10;;;;;;4955767;28;46636;-67
2022/09/08 04:56:10;;;;;;;3.43;1.53;;;16.60;66.10;;;;;;4962276;28;46495;-68
2022/09/08 04:58:38;;;;;;;1.90;1.20;;;16.70;66.20;;;;;;4958709;28;46684;-67
2022/09/08 05:01:11;;;;;;;3.00;1.50;;;16.60;66.00;;;;;;4953993;28;47118;-67
2022/09/08 05:03:37;;;;;;;3.70;1.40;;;16.60;64.90;;;;;;4954202;28;45805;-67
2022/09/08 05:06:08;;;;;;;2.20;1.37;;;16.60;65.90;;;;;;4958608;28;46570;-68
2022/09/08 05:08:34;;;;;;;3.63;1.20;;;16.60;65.90;;;;;;4961310;28;46344;-68
2022/09/08 05:11:00;;;;;;;2.07;1.00;;;16.60;65.80;;;;;;4958442;28;47308;-67
2022/09/08 05:13:26;;;;;;;2.70;1.10;;;16.60;64.70;;;;;;4955945;28;46539;-67
2022/09/08 05:15:52;;;;;;;3.03;1.00;;;16.60;65.80;;;;;;4955935;28;45818;-67
2022/09/08 05:18:17;;;;;;;2.30;1.20;;;16.50;65.60;;;;;;4951515;28;46337;-68
2022/09/08 05:20:43;;;;;;;2.43;1.07;;;16.60;65.50;;;;;;4954407;28;46373;-67
2022/09/08 05:23:09;;;;;;;2.03;1.10;;;16.60;64.20;;;;;;4956868;28;46229;-67
2022/09/08 05:25:34;;;;;;;1.93;1.00;;;16.50;65.10;;;;;;4953297;28;46433;-67
2022/09/08 05:28:01;;;;;;;2.20;1.07;;;16.50;65.10;;;;;;4953634;28;45929;-67
2022/09/08 05:30:26;;;;;;;5.20;1.17;;;16.50;65.00;;;;;;4955378;28;47597;-67
2022/09/08 05:32:52;;;;;;;1.90;1.03;;;16.50;64.70;;;;;;4958917;28;46404;-67
2022/09/08 05:35:17;;;;;;;7.73;1.30;;;16.50;63.60;;;;;;4956131;28;46519;-67
2022/09/08 05:37:43;;;;;;;3.17;1.20;;;16.50;64.70;;;;;;4954687;28;46005;-67
2022/09/08 05:40:09;;;;;;;2.90;1.10;;;16.50;64.50;;;;;;4960031;28;47092;-67
2022/09/08 05:42:34;;;;;;;2.03;1.13;;;16.60;64.40;;;;;;4956459;28;45811;-67
2022/09/08 05:45:00;;;;;;;3.50;1.20;;;16.60;63.30;;;;;;4950729;28;46444;-67
2022/09/08 05:47:26;;;;;;;3.50;1.40;;;16.60;64.30;;;;;;4954180;28;46460;-67
2022/09/08 05:49:52;;;;;;;3.30;1.30;;;16.60;64.20;;;;;;4957919;28;48370;-67
2022/09/08 05:52:18;;;;;;;3.60;1.10;;;16.60;65.40;;;;;;4954552;28;46306;-68
2022/09/08 05:54:43;;;;;;;2.27;1.30;;;16.60;63.30;;;;;;4954520;28;46505;-66
2022/09/08 05:57:09;;;;;;;3.37;1.20;;;16.60;64.30;;;;;;4959434;28;46568;-67
2022/09/08 05:59:34;;;;;;;1.93;1.10;;;16.60;64.20;;;;;;4959671;28;47090;-67
2022/09/08 06:02:00;;;;;;;10.03;4.70;;;16.60;64.20;;;;;;4960586;28;46675;-67
2022/09/08 06:04:26;;;;;;;5.93;2.90;;;16.70;63.20;;;;;;4959946;28;46459;-67
2022/09/08 06:06:52;;;;;;;3.57;1.70;;;16.70;64.10;;;;;;4959803;28;46392;-66
2022/09/08 06:09:17;;;;;;;2.90;1.40;;;16.70;63.90;;;;;;4959832;28;46381;-66
2022/09/08 06:11:43;;;;;;;2.70;1.30;;;16.80;63.70;;;;;;4959537;28;46431;-67
2022/09/08 06:14:10;;;;;;;4.17;1.40;;;16.80;62.70;;;;;;4958561;28;46857;-67
2022/09/08 06:16:36;;;;;;;3.03;1.47;;;16.80;63.60;;;;;;4959306;28;46439;-67
2022/09/08 06:19:02;;;;;;;3.20;1.33;;;16.80;63.50;;;;;;4959030;28;46971;-67
2022/09/08 06:21:30;;;;;;;5.77;2.20;;;16.80;63.50;;;;;;4960567;28;45810;-67
2022/09/08 06:24:02;;;;;;;4.47;1.20;;;16.80;62.50;;;;;;4959696;28;46487;-67
2022/09/08 06:26:34;;;;;;;2.50;1.50;;;16.80;63.50;;;;;;4960413;28;46405;-68
2022/09/08 06:29:29;;;;;;;5.50;1.33;;;16.80;63.50;;;;;;4958143;28;46483;-65
2022/09/08 06:32:03;;;;;;;2.23;1.10;;;16.80;63.50;;;;;;4959479;28;46401;-65
2022/09/08 06:34:43;;;;;;;2.83;1.40;;;16.80;62.40;;;;;;4960326;28;46590;-67
2022/09/08 06:37:27;;;;;;;3.73;1.20;;;16.80;63.40;;;;;;4958053;28;46523;-67
2022/09/08 06:40:02;;;;;;;5.13;1.63;;;16.80;63.30;;;;;;4959068;28;46374;-65
2022/09/08 06:42:36;;;;;;;6.10;2.20;;;16.80;63.40;;;;;;4959536;28;45764;-65
2022/09/08 06:45:03;;;;;;;3.03;1.63;;;16.70;62.30;;;;;;4960266;28;46333;-65
2022/09/08 06:47:42;;;;;;;3.43;1.70;;;16.80;63.60;;;;;;4959078;28;46399;-64
2022/09/08 06:50:12;;;;;;;5.60;1.67;;;16.80;64.70;;;;;;4957431;28;46588;-66
2022/09/08 06:52:51;;;;;;;3.40;1.20;;;16.80;63.50;;;;;;4959899;28;46424;-66
2022/09/08 06:55:33;;;;;;;2.30;1.30;;;16.70;62.50;;;;;;4959341;28;46588;-67
2022/09/08 06:58:05;;;;;;;2.03;0.90;;;16.70;63.60;;;;;;4958693;28;46094;-66
2022/09/08 07:00:44;;;;;;;3.30;1.40;;;16.70;63.70;;;;;;4959147;28;48737;-65
2022/09/08 07:03:27;;;;;;;3.30;1.40;;;16.70;63.10;;;;;;4960616;28;46435;-64
2022/09/08 07:06:07;;;;;;;2.10;1.30;;;16.70;64.10;;;;;;4960423;28;46577;-65
2022/09/08 07:08:59;;;;;;;3.90;1.67;;;16.70;64.10;;;;;;4959535;28;46631;-65
2022/09/08 07:12:00;;;;;;;1.97;1.37;;;16.70;64.00;;;;;;4957624;28;46046;-64
2022/09/08 07:14:41;;;;;;;2.60;1.20;;;16.70;62.90;;;;;;4957316;28;46785;-64
2022/09/08 07:17:12;;;;;;;2.93;1.40;;;16.70;64.00;;;;;;4959457;28;46858;-65
2022/09/08 07:19:46;;;;;;;6.37;1.37;;;16.70;63.90;;;;;;4958927;28;46324;-64
2022/09/08 07:22:26;;;;;;;2.13;1.30;;;16.70;63.90;;;;;;4963620;28;48012;-65
2022/09/08 07:24:56;;;;;;;6.13;2.70;;;16.70;63.20;;;;;;4958044;28;46364;-66
2022/09/08 07:27:24;;;;;;;3.73;1.50;;;16.70;64.30;;;;;;4958077;28;46410;-65
2022/09/08 07:29:53;;;;;;;3.60;2.40;;;16.70;64.40;;;;;;4959370;28;46585;-64
2022/09/08 07:32:29;;;;;;;4.23;1.60;;;16.70;65.60;;;;;;4958297;28;47638;-65
2022/09/08 07:35:00;;;;;;;2.43;1.43;;;16.80;63.40;;;;;;4959566;28;46455;-66
2022/09/08 07:37:34;;;;;;;2.60;1.10;;;16.80;64.20;;;;;;4957890;28;46780;-66
2022/09/08 07:40:18;;;;;;;2.03;1.20;;;17.00;64.00;;;;;;4959397;28;46476;-65
2022/09/08 07:42:50;;;;;;;2.10;1.40;;;17.10;63.50;;;;;;4957610;28;47184;-66
2022/09/08 07:45:16;;;;;;;1.90;1.00;;;17.20;62.40;;;;;;4957621;28;46771;-66
2022/09/08 07:48:36;;;;;;;6.70;1.20;;;17.30;63.10;;;;;;4957487;28;46419;-67
2022/09/08 07:51:12;;;;;;;2.83;1.70;;;17.40;62.70;;;;;;4937600;28;46547;-66
2022/09/08 07:54:05;;;;;;;2.40;1.10;;;17.60;61.40;;;;;;4940757;28;46125;-66
2022/09/08 07:56:43;;;;;;;2.10;1.10;;;17.60;62.30;;;;;;4972070;28;46469;-68
2022/09/08 07:59:17;;;;;;;2.20;1.00;;;17.80;62.10;;;;;;4962116;28;47218;-65
2022/09/08 08:01:49;;;;;;;4.47;1.07;;;17.90;61.60;;;;;;4958432;28;46515;-66
2022/09/08 08:04:40;;;;;;;1.93;1.00;;;18.10;61.50;;;;;;4958076;28;47415;-66
2022/09/08 08:07:14;;;;;;;1.80;0.90;;;18.20;60.90;;;;;;4953356;28;46313;-67
2022/09/08 08:09:47;;;;;;;2.07;1.10;;;18.30;60.80;;;;;;4957567;28;46613;-66
2022/09/08 08:12:37;;;;;;;4.67;2.77;;;18.50;60.30;;;;;;4958796;28;46538;-67
2022/09/08 08:15:16;;;;;;;3.43;1.47;;;18.70;58.60;;;;;;4958600;28;46946;-67
2022/09/08 08:18:09;;;;;;;3.47;1.20;;;18.80;59.80;;;;;;4958678;28;46636;-67
2022/09/08 08:21:18;;;;;;;1.80;1.10;;;19.10;59.40;;;;;;4958377;28;45813;-68
2022/09/08 08:24:26;;;;;;;2.13;1.00;;;19.30;57.40;;;;;;4951457;28;46167;-70
2022/09/08 08:27:01;;;;;;;2.33;0.90;;;19.30;58.40;;;;;;4961408;28;46700;-70
2022/09/08 08:29:51;;;;;;;2.00;1.00;;;19.40;58.30;;;;;;4957972;28;46674;-68
2022/09/08 08:32:23;;;;;;;2.20;0.90;;;19.50;57.70;;;;;;4958619;28;46464;-66
2022/09/08 08:35:11;;;;;;;2.10;1.20;;;19.60;56.30;;;;;;4959148;28;46348;-66
2022/09/08 08:37:39;;;;;;;2.90;1.17;;;19.60;57.40;;;;;;4956317;28;46419;-67
2022/09/08 08:40:31;;;;;;;6.47;0.90;;;19.70;57.40;;;;;;4958329;28;46397;-67
2022/09/08 08:43:05;;;;;;;4.80;1.20;;;19.80;55.60;;;;;;4958276;28;45868;-67
2022/09/08 08:45:36;;;;;;;1.90;0.80;;;19.80;56.60;;;;;;4958181;28;45905;-68
2022/09/08 08:48:25;;;;;;;4.90;1.20;;;19.90;56.20;;;;;;4957355;28;46634;-66
2022/09/08 08:50:51;;;;;;;3.90;1.00;;;19.80;56.30;;;;;;4967415;28;46510;-68
2022/09/08 08:53:51;;;;;;;2.87;1.27;;;19.90;54.90;;;;;;4957805;28;46426;-68
2022/09/08 08:56:45;;;;;;;2.13;1.23;;;19.90;55.90;;;;;;4958870;28;46567;-68
2022/09/08 08:59:48;;;;;;;2.53;1.00;;;19.80;55.50;;;;;;4957956;28;48120;-66
2022/09/08 09:02:51;;;;;;;1.80;0.90;;;19.90;55.10;;;;;;4959058;28;46948;-67
2022/09/08 09:05:35;;;;;;;2.10;1.00;;;19.80;54.00;;;;;;4960867;28;46542;-66
2022/09/08 09:08:38;;;;;;;2.10;0.90;;;19.80;55.10;;;;;;4960595;28;46537;-68
2022/09/08 09:11:29;;;;;;;3.43;0.93;;;19.80;54.80;;;;;;4959545;28;47182;-68
2022/09/08 09:14:34;;;;;;;3.50;1.20;;;19.70;53.60;;;;;;4960939;28;46522;-68
2022/09/08 09:17:34;;;;;;;2.10;1.03;;;19.70;54.50;;;;;;4961623;28;46371;-67
2022/09/08 09:20:48;;;;;;;1.90;0.90;;;19.60;54.30;;;;;;4959902;28;46467;-67
2022/09/08 09:23:29;;;;;;;2.30;1.10;;;19.50;53.30;;;;;;4940437;28;46974;-68
2022/09/08 09:26:02;;;;;;;2.33;1.10;;;19.50;54.20;;;;;;4961436;28;46364;-68
2022/09/08 09:28:45;;;;;;;2.90;1.20;;;19.30;54.30;;;;;;4961658;28;45913;-69
2022/09/08 09:31:26;;;;;;;4.53;3.23;;;19.30;54.30;;;;;;4962069;28;46630;-67
2022/09/08 09:34:29;;;;;;;2.63;1.40;;;19.40;53.00;;;;;;4959998;28;46623;-67
2022/09/08 09:37:10;;;;;;;2.00;1.00;;;19.40;53.70;;;;;;4960877;28;46369;-69
2022/09/08 09:39:48;;;;;;;3.80;1.00;;;19.50;53.40;;;;;;4958958;28;46353;-69
2022/09/08 09:42:42;;;;;;;4.83;1.20;;;19.70;52.60;;;;;;4961227;28;46627;-68
2022/09/08 09:45:59;;;;;;;3.40;1.00;;;19.80;50.70;;;;;;4960430;28;46973;-68
2022/09/08 09:48:41;;;;;;;4.67;0.97;;;20.00;51.60;;;;;;4957094;28;46668;-69
2022/09/08 09:51:11;;;;;;;2.10;1.10;;;20.00;51.00;;;;;;4961288;28;46451;-69
2022/09/08 09:54:03;;;;;;;3.03;1.80;;;20.30;49.40;;;;;;4961391;28;46596;-69
2022/09/08 09:56:41;;;;;;;4.20;3.50;;;20.30;50.30;;;;;;4961587;28;46501;-66
2022/09/08 09:59:34;;;;;;;3.13;1.90;;;20.40;49.70;;;;;;4959755;28;46879;-67
2022/09/08 10:02:18;;;;;;;2.30;1.30;;;20.50;49.40;;;;;;4961261;28;45928;-68
2022/09/08 10:05:08;;;;;;;2.90;1.17;;;20.60;47.90;;;;;;4961171;28;46417;-67
2022/09/08 10:08:08;;;;;;;2.50;1.00;;;20.70;48.30;;;;;;4960444;28;46304;-66
2022/09/08 10:11:11;;;;;;;2.57;1.20;;;20.70;48.30;;;;;;4961944;28;46442;-68
2022/09/08 10:14:04;;;;;;;2.63;0.93;;;20.90;47.40;;;;;;4959126;28;46739;-67
2022/09/08 10:16:41;;;;;;;1.70;0.90;;;20.90;48.50;;;;;;4960237;28;46317;-68
2022/09/08 10:19:31;;;;;;;2.67;1.10;;;21.10;47.70;;;;;;4959906;28;47411;-66
2022/09/08 10:22:15;;;;;;;2.27;1.10;;;21.20;47.40;;;;;;4960034;28;46450;-65
2022/09/08 10:25:32;;;;;;;2.73;0.90;;;21.30;45.90;;;;;;4960260;28;46416;-67
2022/09/08 10:28:06;;;;;;;2.47;0.93;;;21.20;46.90;;;;;;4949262;28;46639;-68
2022/09/08 10:31:04;;;;;;;3.60;1.10;;;21.20;46.60;;;;;;4960298;28;48165;-67
2022/09/08 10:34:04;;;;;;;2.53;0.93;;;21.10;45.40;;;;;;4958467;28;46399;-66
2022/09/08 10:36:54;;;;;;;2.93;1.30;;;21.00;46.10;;;;;;4959822;28;46365;-66
2022/09/08 10:39:50;;;;;;;2.17;1.10;;;20.70;45.70;;;;;;4961793;28;46477;-66
2022/09/08 10:42:33;;;;;;;6.80;1.17;;;20.90;45.90;;;;;;4968658;28;47987;-65
2022/09/08 10:45:43;;;;;;;2.40;1.00;;;21.10;44.30;;;;;;4958311;28;46374;-66
2022/09/08 10:48:21;;;;;;;5.73;1.30;;;21.20;45.30;;;;;;4946829;28;46810;-66
2022/09/08 10:50:51;;;;;;;3.27;1.30;;;21.50;44.90;;;;;;4959820;28;46698;-66
2022/09/08 10:53:35;;;;;;;3.90;1.60;;;21.60;43.60;;;;;;4959014;28;46553;-66
2022/09/08 10:56:08;;;;;;;3.17;1.30;;;21.60;44.90;;;;;;4958046;28;46424;-66
2022/09/08 10:59:11;;;;;;;2.80;1.20;;;21.70;44.90;;;;;;4955880;28;46580;-68
2022/09/08 11:01:54;;;;;;;3.57;1.20;;;21.60;43.90;;;;;;4973717;28;46019;-67
2022/09/08 11:04:36;;;;;;;5.33;2.00;;;22.30;42.50;;;;;;4958355;28;47581;-65
2022/09/08 11:07:14;;;;;;;4.53;1.23;;;22.60;41.20;;;;;;4959120;28;46424;-67
2022/09/08 11:09:59;;;;;;;4.90;1.37;;;22.60;42.30;;;;;;4963982;28;46464;-66
2022/09/08 11:12:49;;;;;;;4.40;1.40;;;22.00;43.00;;;;;;4966693;28;46443;-68
2022/09/08 11:15:37;;;;;;;3.20;1.30;;;22.10;41.30;;;;;;4956748;28;46646;-69
2022/09/08 11:18:33;;;;;;;4.47;1.20;;;22.20;42.20;;;;;;4958078;28;46471;-70
2022/09/08 11:21:07;;;;;;;3.00;1.40;;;22.40;41.40;;;;;;4958543;28;46427;-69
2022/09/08 11:24:25;;;;;;;2.87;1.27;;;22.20;40.20;;;;;;4958690;28;46601;-69
2022/09/08 11:27:15;;;;;;;2.67;1.20;;;22.30;41.10;;;;;;4956702;28;46461;-68
2022/09/08 11:29:42;;;;;;;4.77;1.50;;;22.40;39.40;;;;;;4957699;28;46472;-67
2022/09/08 11:32:16;;;;;;;2.40;1.10;;;22.20;40.50;;;;;;4958293;28;46537;-67
2022/09/08 11:35:07;;;;;;;3.40;1.23;;;22.10;40.80;;;;;;4972980;28;46870;-68
2022/09/08 11:37:55;;;;;;;6.03;1.40;;;22.40;41.30;;;;;;4956634;28;47620;-67
2022/09/08 11:40:26;;;;;;;2.60;1.20;;;22.60;40.50;;;;;;4958459;28;46760;-69
2022/09/08 11:43:10;;;;;;;9.70;1.30;;;22.40;39.70;;;;;;4958719;28;45816;-68
2022/09/08 11:45:57;;;;;;;5.30;1.30;;;22.40;40.80;;;;;;4956631;28;46455;-70
2022/09/08 11:48:51;;;;;;;2.93;1.20;;;22.80;38.70;;;;;;4950103;28;46988;-68
2022/09/08 11:51:53;;;;;;;3.60;1.40;;;22.90;38.80;;;;;;4954476;28;46609;-69
2022/09/08 11:54:39;;;;;;;3.70;1.77;;;23.70;36.40;;;;;;4956755;28;46380;-68
2022/09/08 11:57:51;;;;;;;4.73;1.70;;;23.90;36.50;;;;;;4973236;28;46375;-69
2022/09/08 12:00:29;;;;;;;5.50;1.60;;;23.90;37.00;;;;;;4962205;28;47054;-66
2022/09/08 12:03:13;;;;;;;3.40;1.30;;;23.70;36.70;;;;;;4958762;28;46672;-68
2022/09/08 12:05:51;;;;;;;5.90;1.70;;;23.40;36.00;;;;;;4958575;28;46402;-68
2022/09/08 12:08:50;;;;;;;2.97;1.10;;;22.90;34.40;;;;;;4956993;28;46660;-68
2022/09/08 12:11:29;;;;;;;3.53;1.47;;;22.40;36.30;;;;;;4956389;28;47124;-68
2022/09/08 12:14:22;;;;;;;3.80;1.30;;;22.40;36.20;;;;;;4955975;28;46392;-66
2022/09/08 12:16:54;;;;;;;2.70;1.40;;;22.40;37.10;;;;;;4957251;28;46514;-68
2022/09/08 12:19:38;;;;;;;4.77;1.30;;;22.70;37.70;;;;;;4957811;28;46607;-69
2022/09/08 12:22:18;;;;;;;4.20;1.57;;;22.70;36.50;;;;;;4966701;28;48871;-69
2022/09/08 12:25:08;;;;;;;5.80;1.03;;;22.80;35.50;;;;;;4958294;28;46468;-67
2022/09/08 12:27:39;;;;;;;2.50;1.00;;;22.60;36.50;;;;;;4958458;28;45778;-69
2022/09/08 12:30:23;;;;;;;5.20;1.27;;;22.80;36.50;;;;;;4958106;28;46891;-67
2022/09/08 12:33:07;;;;;;;6.67;2.00;;;22.70;33.10;;;;;;4958190;28;46422;-67
2022/09/08 12:35:33;;;;;;;2.70;1.17;;;22.70;34.30;;;;;;4963263;28;46568;-68
2022/09/08 12:38:41;;;;;;;2.60;1.13;;;22.70;34.90;;;;;;4960782;28;45817;-69
2022/09/08 12:41:27;;;;;;;5.20;1.30;;;22.90;34.90;;;;;;4987248;28;46593;-68
2022/09/08 12:44:23;;;;;;;3.40;1.40;;;23.10;32.70;;;;;;4986300;28;47347;-68
2022/09/08 12:46:56;;;;;;;3.13;1.30;;;23.20;33.80;;;;;;4963653;28;46376;-68
2022/09/08 12:49:34;;;;;;;3.40;1.40;;;23.40;33.20;;;;;;4958793;28;46380;-68
2022/09/08 12:52:02;;;;;;;4.67;1.30;;;23.40;33.10;;;;;;4960509;28;46448;-68
2022/09/08 12:54:34;;;;;;;2.37;1.20;;;22.90;32.30;;;;;;4961911;28;46537;-67
2022/09/08 12:57:17;;;;;;;5.20;1.40;;;22.50;32.10;;;;;;4960614;28;46667;-65
2022/09/08 13:00:14;;;;;;;3.50;1.33;;;22.20;33.20;;;;;;4961714;28;46309;-69
2022/09/08 13:03:08;;;;;;;3.00;1.47;;;22.30;32.90;;;;;;4962886;28;46452;-67
2022/09/08 13:05:54;;;;;;;3.83;1.30;;;22.30;31.80;;;;;;4957574;28;46515;-67
2022/09/08 13:08:33;;;;;;;3.70;1.37;;;22.40;33.40;;;;;;4959355;28;46448;-66
2022/09/08 13:11:16;;;;;;;2.63;1.20;;;22.50;33.20;;;;;;4960872;28;45882;-66
2022/09/08 13:13:44;;;;;;;4.00;1.30;;;22.60;33.50;;;;;;4960131;28;46841;-69
2022/09/08 13:16:24;;;;;;;7.47;1.40;;;22.60;33.10;;;;;;4959573;28;46779;-69
2022/09/08 13:19:01;;;;;;;6.40;1.40;;;22.60;33.00;;;;;;4960248;28;46731;-69
2022/09/08 13:21:39;;;;;;;8.80;1.50;;;22.60;32.10;;;;;;4961533;28;46446;-69
2022/09/08 13:24:18;;;;;;;4.93;1.20;;;22.60;30.00;;;;;;4960718;28;46663;-69
2022/09/08 13:26:52;;;;;;;2.83;1.30;;;22.70;31.00;;;;;;4959167;28;48081;-68
2022/09/08 13:29:46;;;;;;;2.50;1.23;;;22.60;30.50;;;;;;4959290;28;46435;-68
2022/09/08 13:32:56;;;;;;;7.13;1.50;;;22.70;30.50;;;;;;4959938;28;46202;-68
2022/09/08 13:35:27;;;;;;;2.80;1.13;;;22.90;28.90;;;;;;4960184;28;47050;-67
2022/09/08 13:38:17;;;;;;;2.67;1.23;;;22.60;28.30;;;;;;4959976;28;46410;-66
2022/09/08 13:41:07;;;;;;;4.47;1.40;;;22.60;28.90;;;;;;4960409;28;46489;-67